sensor_id;sensor_type;location;lat;lon;timestamp;P1;durP1;ratioP1;P2;durP2;ratioP2
73951;SDS011;62304;47.662;18.324;2024-01-07T00:02:57;15.55;;;8.50;;
73951;SDS011;62304;47.662;18.324;2024-01-07T00:06:00;15.10;;;8.70;;
73951;SDS011;62304;47.662;18.324;2024-01-07T00:09:03;15.95;;;8.35;;
73951;SDS011;62304;47.662;18.324;2024-01-07T00:12:07;16.40;;;8.93;;
73951;SDS011;62304;47.662;18.324;2024-01-07T00:15:10;14.55;;;7.95;;
73951;SDS011;62304;47.662;18.324;2024-01-07T00:18:13;16.80;;;9.05;;
73951;SDS011;62304;47.662;18.324;2024-01-07T00:21:16;14.20;;;7.87;;
73951;SDS011;62304;47.662;18.324;2024-01-07T00:24:20;15.55;;;8.48;;
73951;SDS011;62304;47.662;18.324;2024-01-07T00:27:23;12.77;;;7.10;;
73951;SDS011;62304;47.662;18.324;2024-01-07T00:30:26;13.48;;;7.28;;
73951;SDS011;62304;47.662;18.324;2024-01-07T00:33:30;15.15;;;7.55;;
73951;SDS011;62304;47.662;18.324;2024-01-07T00:36:34;11.80;;;7.23;;
73951;SDS011;62304;47.662;18.324;2024-01-07T00:39:37;13.13;;;7.90;;
73951;SDS011;62304;47.662;18.324;2024-01-07T00:42:41;13.02;;;6.90;;
73951;SDS011;62304;47.662;18.324;2024-01-07T00:45:45;12.68;;;7.20;;
73951;SDS011;62304;47.662;18.324;2024-01-07T00:48:48;14.05;;;7.25;;
73951;SDS011;62304;47.662;18.324;2024-01-07T00:51:51;18.40;;;8.07;;
73951;SDS011;62304;47.662;18.324;2024-01-07T00:54:55;13.23;;;7.18;;
73951;SDS011;62304;47.662;18.324;2024-01-07T00:57:58;12.35;;;6.78;;
73951;SDS011;62304;47.662;18.324;2024-01-07T01:01:01;14.93;;;7.25;;
73951;SDS011;62304;47.662;18.324;2024-01-07T01:04:05;13.65;;;7.20;;
73951;SDS011;62304;47.662;18.324;2024-01-07T01:07:08;12.77;;;6.97;;
73951;SDS011;62304;47.662;18.324;2024-01-07T01:10:12;13.73;;;7.72;;
73951;SDS011;62304;47.662;18.324;2024-01-07T01:13:19;13.27;;;7.30;;
73951;SDS011;62304;47.662;18.324;2024-01-07T01:16:22;12.30;;;7.03;;
73951;SDS011;62304;47.662;18.324;2024-01-07T01:19:27;15.32;;;7.32;;
73951;SDS011;62304;47.662;18.324;2024-01-07T01:22:30;13.93;;;7.40;;
73951;SDS011;62304;47.662;18.324;2024-01-07T01:25:33;16.10;;;8.25;;
73951;SDS011;62304;47.662;18.324;2024-01-07T01:28:38;13.43;;;7.37;;
73951;SDS011;62304;47.662;18.324;2024-01-07T01:31:41;14.25;;;7.82;;
73951;SDS011;62304;47.662;18.324;2024-01-07T01:34:44;13.30;;;7.28;;
73951;SDS011;62304;47.662;18.324;2024-01-07T01:37:48;14.10;;;7.07;;
73951;SDS011;62304;47.662;18.324;2024-01-07T01:40:51;13.40;;;7.50;;
73951;SDS011;62304;47.662;18.324;2024-01-07T01:43:59;13.75;;;7.55;;
73951;SDS011;62304;47.662;18.324;2024-01-07T01:47:03;14.43;;;7.60;;
73951;SDS011;62304;47.662;18.324;2024-01-07T01:50:08;15.20;;;7.78;;
73951;SDS011;62304;47.662;18.324;2024-01-07T01:53:11;13.97;;;7.43;;
73951;SDS011;62304;47.662;18.324;2024-01-07T01:56:15;14.82;;;7.53;;
73951;SDS011;62304;47.662;18.324;2024-01-07T01:59:23;14.07;;;7.60;;
73951;SDS011;62304;47.662;18.324;2024-01-07T02:02:28;14.87;;;7.47;;
73951;SDS011;62304;47.662;18.324;2024-01-07T02:05:32;15.43;;;6.85;;
73951;SDS011;62304;47.662;18.324;2024-01-07T02:08:35;15.13;;;8.17;;
73951;SDS011;62304;47.662;18.324;2024-01-07T02:11:39;13.90;;;6.90;;
73951;SDS011;62304;47.662;18.324;2024-01-07T02:14:42;15.10;;;7.40;;
73951;SDS011;62304;47.662;18.324;2024-01-07T02:17:45;14.13;;;7.22;;
73951;SDS011;62304;47.662;18.324;2024-01-07T02:20:48;14.00;;;7.80;;
73951;SDS011;62304;47.662;18.324;2024-01-07T02:23:52;15.53;;;6.93;;
73951;SDS011;62304;47.662;18.324;2024-01-07T02:26:54;15.30;;;7.97;;
73951;SDS011;62304;47.662;18.324;2024-01-07T02:29:58;13.45;;;7.45;;
73951;SDS011;62304;47.662;18.324;2024-01-07T02:33:01;14.13;;;7.05;;
73951;SDS011;62304;47.662;18.324;2024-01-07T02:36:07;14.73;;;7.10;;
73951;SDS011;62304;47.662;18.324;2024-01-07T02:39:10;13.17;;;6.90;;
73951;SDS011;62304;47.662;18.324;2024-01-07T02:42:14;13.82;;;7.05;;
73951;SDS011;62304;47.662;18.324;2024-01-07T02:45:17;13.43;;;7.03;;
73951;SDS011;62304;47.662;18.324;2024-01-07T02:48:20;17.15;;;7.53;;
73951;SDS011;62304;47.662;18.324;2024-01-07T02:51:23;13.67;;;6.97;;
73951;SDS011;62304;47.662;18.324;2024-01-07T02:54:26;13.23;;;7.13;;
73951;SDS011;62304;47.662;18.324;2024-01-07T02:57:29;13.70;;;6.95;;
73951;SDS011;62304;47.662;18.324;2024-01-07T03:00:33;15.27;;;7.32;;
73951;SDS011;62304;47.662;18.324;2024-01-07T03:03:36;13.35;;;6.97;;
73951;SDS011;62304;47.662;18.324;2024-01-07T03:06:40;12.87;;;6.53;;
73951;SDS011;62304;47.662;18.324;2024-01-07T03:09:43;14.27;;;7.23;;
73951;SDS011;62304;47.662;18.324;2024-01-07T03:12:49;14.82;;;7.30;;
73951;SDS011;62304;47.662;18.324;2024-01-07T03:15:52;14.35;;;7.53;;
73951;SDS011;62304;47.662;18.324;2024-01-07T03:18:57;14.38;;;7.18;;
73951;SDS011;62304;47.662;18.324;2024-01-07T03:22:01;15.50;;;7.03;;
73951;SDS011;62304;47.662;18.324;2024-01-07T03:25:05;15.40;;;7.50;;
73951;SDS011;62304;47.662;18.324;2024-01-07T03:28:08;12.68;;;7.20;;
73951;SDS011;62304;47.662;18.324;2024-01-07T03:31:12;14.75;;;7.75;;
73951;SDS011;62304;47.662;18.324;2024-01-07T03:34:16;16.40;;;7.65;;
73951;SDS011;62304;47.662;18.324;2024-01-07T03:37:20;14.13;;;6.63;;
73951;SDS011;62304;47.662;18.324;2024-01-07T03:40:26;14.53;;;6.97;;
73951;SDS011;62304;47.662;18.324;2024-01-07T03:43:32;15.75;;;7.72;;
73951;SDS011;62304;47.662;18.324;2024-01-07T03:46:35;15.57;;;7.60;;
73951;SDS011;62304;47.662;18.324;2024-01-07T03:49:38;15.50;;;7.53;;
73951;SDS011;62304;47.662;18.324;2024-01-07T03:52:42;15.23;;;7.07;;
73951;SDS011;62304;47.662;18.324;2024-01-07T03:55:45;17.27;;;8.33;;
73951;SDS011;62304;47.662;18.324;2024-01-07T03:58:48;16.65;;;7.70;;
73951;SDS011;62304;47.662;18.324;2024-01-07T04:01:55;15.98;;;8.25;;
73951;SDS011;62304;47.662;18.324;2024-01-07T04:05:00;18.58;;;7.97;;
73951;SDS011;62304;47.662;18.324;2024-01-07T04:08:03;16.03;;;7.73;;
73951;SDS011;62304;47.662;18.324;2024-01-07T04:11:06;15.50;;;7.67;;
73951;SDS011;62304;47.662;18.324;2024-01-07T04:14:09;16.10;;;8.05;;
73951;SDS011;62304;47.662;18.324;2024-01-07T04:17:13;17.98;;;8.73;;
73951;SDS011;62304;47.662;18.324;2024-01-07T04:20:16;16.58;;;8.18;;
73951;SDS011;62304;47.662;18.324;2024-01-07T04:23:19;16.87;;;8.90;;
73951;SDS011;62304;47.662;18.324;2024-01-07T04:26:22;15.37;;;8.10;;
73951;SDS011;62304;47.662;18.324;2024-01-07T04:29:25;16.05;;;7.90;;
73951;SDS011;62304;47.662;18.324;2024-01-07T04:32:28;15.70;;;7.93;;
73951;SDS011;62304;47.662;18.324;2024-01-07T04:35:32;18.20;;;8.68;;
73951;SDS011;62304;47.662;18.324;2024-01-07T04:38:35;19.40;;;8.70;;
73951;SDS011;62304;47.662;18.324;2024-01-07T04:41:38;18.63;;;7.43;;
73951;SDS011;62304;47.662;18.324;2024-01-07T04:44:44;19.23;;;8.82;;
73951;SDS011;62304;47.662;18.324;2024-01-07T04:47:48;18.35;;;9.13;;
73951;SDS011;62304;47.662;18.324;2024-01-07T04:50:51;17.60;;;8.32;;
73951;SDS011;62304;47.662;18.324;2024-01-07T04:53:54;17.03;;;8.47;;
73951;SDS011;62304;47.662;18.324;2024-01-07T04:56:57;17.27;;;9.03;;
73951;SDS011;62304;47.662;18.324;2024-01-07T05:00:01;19.17;;;8.60;;
73951;SDS011;62304;47.662;18.324;2024-01-07T05:03:06;19.42;;;13.30;;
73951;SDS011;62304;47.662;18.324;2024-01-07T05:06:09;17.87;;;9.50;;
73951;SDS011;62304;47.662;18.324;2024-01-07T05:09:12;17.70;;;8.73;;
73951;SDS011;62304;47.662;18.324;2024-01-07T05:12:16;22.37;;;8.47;;
73951;SDS011;62304;47.662;18.324;2024-01-07T05:15:19;17.30;;;9.60;;
73951;SDS011;62304;47.662;18.324;2024-01-07T05:18:22;17.77;;;8.70;;
73951;SDS011;62304;47.662;18.324;2024-01-07T05:21:27;21.08;;;10.43;;
73951;SDS011;62304;47.662;18.324;2024-01-07T05:24:30;16.67;;;9.43;;
73951;SDS011;62304;47.662;18.324;2024-01-07T05:27:36;15.27;;;8.47;;
73951;SDS011;62304;47.662;18.324;2024-01-07T05:30:39;14.77;;;8.25;;
73951;SDS011;62304;47.662;18.324;2024-01-07T05:33:44;13.85;;;8.15;;
73951;SDS011;62304;47.662;18.324;2024-01-07T05:36:48;15.13;;;7.55;;
73951;SDS011;62304;47.662;18.324;2024-01-07T05:39:51;12.57;;;6.83;;
73951;SDS011;62304;47.662;18.324;2024-01-07T05:42:54;13.03;;;7.03;;
73951;SDS011;62304;47.662;18.324;2024-01-07T05:45:57;12.45;;;6.43;;
73951;SDS011;62304;47.662;18.324;2024-01-07T05:49:00;13.35;;;6.28;;
73951;SDS011;62304;47.662;18.324;2024-01-07T05:52:03;12.45;;;6.93;;
73951;SDS011;62304;47.662;18.324;2024-01-07T05:55:07;12.13;;;6.33;;
73951;SDS011;62304;47.662;18.324;2024-01-07T05:58:10;11.57;;;5.70;;
73951;SDS011;62304;47.662;18.324;2024-01-07T06:01:18;10.82;;;5.80;;
73951;SDS011;62304;47.662;18.324;2024-01-07T06:04:22;12.02;;;6.32;;
73951;SDS011;62304;47.662;18.324;2024-01-07T06:07:26;11.60;;;5.82;;
73951;SDS011;62304;47.662;18.324;2024-01-07T06:10:29;11.60;;;6.00;;
73951;SDS011;62304;47.662;18.324;2024-01-07T06:13:32;11.00;;;5.30;;
73951;SDS011;62304;47.662;18.324;2024-01-07T06:16:36;11.27;;;6.30;;
73951;SDS011;62304;47.662;18.324;2024-01-07T06:19:39;10.75;;;4.22;;
73951;SDS011;62304;47.662;18.324;2024-01-07T06:22:45;6.00;;;3.10;;
73951;SDS011;62304;47.662;18.324;2024-01-07T06:25:48;7.33;;;4.60;;
73951;SDS011;62304;47.662;18.324;2024-01-07T06:28:52;9.07;;;5.37;;
73951;SDS011;62304;47.662;18.324;2024-01-07T06:31:55;8.18;;;5.12;;
73951;SDS011;62304;47.662;18.324;2024-01-07T06:34:58;7.82;;;4.22;;
73951;SDS011;62304;47.662;18.324;2024-01-07T06:38:02;9.30;;;4.97;;
73951;SDS011;62304;47.662;18.324;2024-01-07T06:41:07;7.77;;;4.27;;
73951;SDS011;62304;47.662;18.324;2024-01-07T06:44:10;10.23;;;5.07;;
73951;SDS011;62304;47.662;18.324;2024-01-07T06:47:13;8.65;;;4.68;;
73951;SDS011;62304;47.662;18.324;2024-01-07T06:50:16;9.32;;;4.75;;
73951;SDS011;62304;47.662;18.324;2024-01-07T06:53:21;10.25;;;3.90;;
73951;SDS011;62304;47.662;18.324;2024-01-07T06:56:24;7.43;;;4.13;;
73951;SDS011;62304;47.662;18.324;2024-01-07T06:59:27;7.62;;;3.90;;
73951;SDS011;62304;47.662;18.324;2024-01-07T07:02:30;6.60;;;2.67;;
73951;SDS011;62304;47.662;18.324;2024-01-07T07:05:34;11.27;;;4.07;;
73951;SDS011;62304;47.662;18.324;2024-01-07T07:08:39;9.13;;;4.72;;
73951;SDS011;62304;47.662;18.324;2024-01-07T07:11:43;7.97;;;4.50;;
73951;SDS011;62304;47.662;18.324;2024-01-07T07:14:46;6.45;;;3.42;;
73951;SDS011;62304;47.662;18.324;2024-01-07T07:17:49;7.45;;;4.12;;
73951;SDS011;62304;47.662;18.324;2024-01-07T07:20:52;5.80;;;3.12;;
73951;SDS011;62304;47.662;18.324;2024-01-07T07:23:56;8.15;;;4.03;;
73951;SDS011;62304;47.662;18.324;2024-01-07T07:26:59;6.00;;;3.47;;
73951;SDS011;62304;47.662;18.324;2024-01-07T07:30:03;5.72;;;2.97;;
73951;SDS011;62304;47.662;18.324;2024-01-07T07:33:07;7.22;;;4.20;;
73951;SDS011;62304;47.662;18.324;2024-01-07T07:36:10;4.65;;;2.10;;
73951;SDS011;62304;47.662;18.324;2024-01-07T07:39:13;6.70;;;3.53;;
73951;SDS011;62304;47.662;18.324;2024-01-07T07:42:17;5.33;;;2.87;;
73951;SDS011;62304;47.662;18.324;2024-01-07T07:45:20;8.23;;;3.83;;
73951;SDS011;62304;47.662;18.324;2024-01-07T07:48:25;7.90;;;4.30;;
73951;SDS011;62304;47.662;18.324;2024-01-07T07:51:47;5.95;;;2.97;;
73951;SDS011;62304;47.662;18.324;2024-01-07T07:54:54;6.50;;;3.58;;
73951;SDS011;62304;47.662;18.324;2024-01-07T07:57:57;7.77;;;4.57;;
73951;SDS011;62304;47.662;18.324;2024-01-07T08:01:02;7.93;;;2.90;;
73951;SDS011;62304;47.662;18.324;2024-01-07T08:04:06;5.93;;;2.58;;
73951;SDS011;62304;47.662;18.324;2024-01-07T08:07:10;3.85;;;1.73;;
73951;SDS011;62304;47.662;18.324;2024-01-07T08:10:13;5.22;;;2.00;;
73951;SDS011;62304;47.662;18.324;2024-01-07T08:13:17;5.37;;;2.73;;
73951;SDS011;62304;47.662;18.324;2024-01-07T08:16:23;6.75;;;3.12;;
73951;SDS011;62304;47.662;18.324;2024-01-07T08:19:26;4.70;;;2.42;;
73951;SDS011;62304;47.662;18.324;2024-01-07T08:22:30;7.75;;;3.80;;
73951;SDS011;62304;47.662;18.324;2024-01-07T08:25:33;6.60;;;3.27;;
73951;SDS011;62304;47.662;18.324;2024-01-07T08:28:36;7.97;;;4.72;;
73951;SDS011;62304;47.662;18.324;2024-01-07T08:31:39;10.65;;;5.28;;
73951;SDS011;62304;47.662;18.324;2024-01-07T08:34:45;8.27;;;4.80;;
73951;SDS011;62304;47.662;18.324;2024-01-07T08:37:48;6.70;;;3.47;;
73951;SDS011;62304;47.662;18.324;2024-01-07T08:40:52;5.83;;;2.97;;
73951;SDS011;62304;47.662;18.324;2024-01-07T08:43:55;7.68;;;3.65;;
73951;SDS011;62304;47.662;18.324;2024-01-07T08:46:59;8.68;;;4.47;;
73951;SDS011;62304;47.662;18.324;2024-01-07T08:50:03;8.27;;;3.75;;
73951;SDS011;62304;47.662;18.324;2024-01-07T08:53:07;7.40;;;2.72;;
73951;SDS011;62304;47.662;18.324;2024-01-07T08:56:10;6.87;;;3.47;;
73951;SDS011;62304;47.662;18.324;2024-01-07T08:59:15;5.65;;;2.42;;
73951;SDS011;62304;47.662;18.324;2024-01-07T09:02:18;6.85;;;3.37;;
73951;SDS011;62304;47.662;18.324;2024-01-07T09:05:21;4.85;;;2.37;;
73951;SDS011;62304;47.662;18.324;2024-01-07T09:08:24;6.82;;;4.00;;
73951;SDS011;62304;47.662;18.324;2024-01-07T09:11:28;5.10;;;2.17;;
73951;SDS011;62304;47.662;18.324;2024-01-07T09:14:31;7.78;;;3.97;;
73951;SDS011;62304;47.662;18.324;2024-01-07T09:17:35;6.45;;;3.12;;
73951;SDS011;62304;47.662;18.324;2024-01-07T09:20:39;7.37;;;3.50;;
73951;SDS011;62304;47.662;18.324;2024-01-07T09:23:43;6.23;;;1.47;;
73951;SDS011;62304;47.662;18.324;2024-01-07T09:26:46;6.10;;;3.08;;
73951;SDS011;62304;47.662;18.324;2024-01-07T09:29:50;7.72;;;3.85;;
73951;SDS011;62304;47.662;18.324;2024-01-07T09:32:54;6.82;;;3.28;;
73951;SDS011;62304;47.662;18.324;2024-01-07T09:35:57;6.87;;;3.83;;
73951;SDS011;62304;47.662;18.324;2024-01-07T09:39:16;8.25;;;4.15;;
73951;SDS011;62304;47.662;18.324;2024-01-07T09:42:19;5.68;;;2.80;;
73951;SDS011;62304;47.662;18.324;2024-01-07T09:45:22;8.40;;;4.37;;
73951;SDS011;62304;47.662;18.324;2024-01-07T09:48:26;9.57;;;4.57;;
73951;SDS011;62304;47.662;18.324;2024-01-07T09:51:29;5.40;;;2.30;;
73951;SDS011;62304;47.662;18.324;2024-01-07T09:54:38;7.37;;;3.45;;
73951;SDS011;62304;47.662;18.324;2024-01-07T09:57:42;10.43;;;4.70;;
73951;SDS011;62304;47.662;18.324;2024-01-07T10:00:47;9.27;;;4.35;;
73951;SDS011;62304;47.662;18.324;2024-01-07T10:03:51;13.77;;;6.40;;
73951;SDS011;62304;47.662;18.324;2024-01-07T10:06:54;6.13;;;3.20;;
73951;SDS011;62304;47.662;18.324;2024-01-07T10:09:58;9.35;;;4.12;;
73951;SDS011;62304;47.662;18.324;2024-01-07T10:13:12;9.50;;;5.37;;
73951;SDS011;62304;47.662;18.324;2024-01-07T10:16:16;9.27;;;4.45;;
73951;SDS011;62304;47.662;18.324;2024-01-07T10:19:22;8.07;;;3.67;;
73951;SDS011;62304;47.662;18.324;2024-01-07T10:22:27;7.45;;;2.78;;
73951;SDS011;62304;47.662;18.324;2024-01-07T10:25:30;10.65;;;4.72;;
73951;SDS011;62304;47.662;18.324;2024-01-07T10:28:35;7.12;;;3.90;;
73951;SDS011;62304;47.662;18.324;2024-01-07T10:31:40;7.85;;;4.03;;
73951;SDS011;62304;47.662;18.324;2024-01-07T10:34:46;12.77;;;4.77;;
73951;SDS011;62304;47.662;18.324;2024-01-07T10:37:50;9.02;;;5.45;;
73951;SDS011;62304;47.662;18.324;2024-01-07T10:40:53;17.30;;;7.15;;
73951;SDS011;62304;47.662;18.324;2024-01-07T10:43:58;7.65;;;4.07;;
73951;SDS011;62304;47.662;18.324;2024-01-07T10:47:03;8.00;;;3.60;;
73951;SDS011;62304;47.662;18.324;2024-01-07T10:50:11;7.60;;;3.53;;
73951;SDS011;62304;47.662;18.324;2024-01-07T10:53:20;8.68;;;4.22;;
73951;SDS011;62304;47.662;18.324;2024-01-07T10:56:25;8.07;;;4.55;;
73951;SDS011;62304;47.662;18.324;2024-01-07T10:59:36;4.93;;;2.10;;
73951;SDS011;62304;47.662;18.324;2024-01-07T11:02:41;9.88;;;4.18;;
73951;SDS011;62304;47.662;18.324;2024-01-07T11:05:58;9.73;;;4.72;;
73951;SDS011;62304;47.662;18.324;2024-01-07T11:09:12;7.53;;;3.95;;
73951;SDS011;62304;47.662;18.324;2024-01-07T11:12:17;12.27;;;4.13;;
73951;SDS011;62304;47.662;18.324;2024-01-07T11:18:54;9.75;;;3.70;;
73951;SDS011;62304;47.662;18.324;2024-01-07T11:25:31;7.17;;;3.27;;
73951;SDS011;62304;47.662;18.324;2024-01-07T11:31:52;10.60;;;4.45;;
73951;SDS011;62304;47.662;18.324;2024-01-07T11:34:56;12.30;;;4.97;;
73951;SDS011;62304;47.662;18.324;2024-01-07T11:38:02;9.70;;;4.70;;
73951;SDS011;62304;47.662;18.324;2024-01-07T11:41:06;9.70;;;3.92;;
73951;SDS011;62304;47.662;18.324;2024-01-07T11:44:10;9.32;;;3.80;;
73951;SDS011;62304;47.662;18.324;2024-01-07T11:47:17;7.85;;;3.05;;
73951;SDS011;62304;47.662;18.324;2024-01-07T11:50:22;8.50;;;3.58;;
73951;SDS011;62304;47.662;18.324;2024-01-07T11:53:25;8.52;;;4.20;;
73951;SDS011;62304;47.662;18.324;2024-01-07T11:56:28;9.05;;;3.78;;
73951;SDS011;62304;47.662;18.324;2024-01-07T11:59:33;7.65;;;3.40;;
73951;SDS011;62304;47.662;18.324;2024-01-07T12:02:37;10.05;;;3.67;;
73951;SDS011;62304;47.662;18.324;2024-01-07T12:05:40;8.13;;;2.50;;
73951;SDS011;62304;47.662;18.324;2024-01-07T12:08:46;7.35;;;3.05;;
73951;SDS011;62304;47.662;18.324;2024-01-07T12:11:50;8.20;;;3.67;;
73951;SDS011;62304;47.662;18.324;2024-01-07T12:14:54;10.73;;;6.10;;
73951;SDS011;62304;47.662;18.324;2024-01-07T12:17:59;11.38;;;5.10;;
73951;SDS011;62304;47.662;18.324;2024-01-07T12:21:04;7.65;;;2.58;;
73951;SDS011;62304;47.662;18.324;2024-01-07T12:24:11;5.12;;;2.45;;
73951;SDS011;62304;47.662;18.324;2024-01-07T12:27:16;6.27;;;2.67;;
73951;SDS011;62304;47.662;18.324;2024-01-07T12:30:23;9.07;;;4.75;;
73951;SDS011;62304;47.662;18.324;2024-01-07T12:33:27;7.12;;;3.10;;
73951;SDS011;62304;47.662;18.324;2024-01-07T12:36:32;8.10;;;3.75;;
73951;SDS011;62304;47.662;18.324;2024-01-07T12:39:36;11.47;;;5.37;;
73951;SDS011;62304;47.662;18.324;2024-01-07T12:42:40;10.52;;;5.35;;
73951;SDS011;62304;47.662;18.324;2024-01-07T12:45:50;12.10;;;4.70;;
73951;SDS011;62304;47.662;18.324;2024-01-07T12:48:53;11.93;;;5.55;;
73951;SDS011;62304;47.662;18.324;2024-01-07T12:51:56;6.78;;;3.33;;
73951;SDS011;62304;47.662;18.324;2024-01-07T12:55:00;8.75;;;3.85;;
73951;SDS011;62304;47.662;18.324;2024-01-07T12:58:03;8.43;;;3.35;;
73951;SDS011;62304;47.662;18.324;2024-01-07T13:01:07;12.48;;;4.25;;
73951;SDS011;62304;47.662;18.324;2024-01-07T13:04:10;9.17;;;4.30;;
73951;SDS011;62304;47.662;18.324;2024-01-07T13:07:13;9.63;;;4.93;;
73951;SDS011;62304;47.662;18.324;2024-01-07T13:10:17;8.25;;;4.05;;
73951;SDS011;62304;47.662;18.324;2024-01-07T13:13:20;9.60;;;4.57;;
73951;SDS011;62304;47.662;18.324;2024-01-07T13:16:23;9.77;;;5.07;;
73951;SDS011;62304;47.662;18.324;2024-01-07T13:19:28;8.65;;;4.07;;
73951;SDS011;62304;47.662;18.324;2024-01-07T13:22:33;11.10;;;4.97;;
73951;SDS011;62304;47.662;18.324;2024-01-07T13:25:37;10.95;;;5.22;;
73951;SDS011;62304;47.662;18.324;2024-01-07T13:28:40;12.67;;;5.43;;
73951;SDS011;62304;47.662;18.324;2024-01-07T13:31:44;11.68;;;5.50;;
73951;SDS011;62304;47.662;18.324;2024-01-07T13:34:47;8.48;;;3.78;;
73951;SDS011;62304;47.662;18.324;2024-01-07T13:37:51;7.78;;;3.58;;
73951;SDS011;62304;47.662;18.324;2024-01-07T13:40:54;11.53;;;4.47;;
73951;SDS011;62304;47.662;18.324;2024-01-07T13:44:01;6.37;;;2.97;;
73951;SDS011;62304;47.662;18.324;2024-01-07T13:47:05;9.07;;;4.03;;
73951;SDS011;62304;47.662;18.324;2024-01-07T13:50:10;11.55;;;4.82;;
73951;SDS011;62304;47.662;18.324;2024-01-07T13:53:13;11.15;;;5.82;;
73951;SDS011;62304;47.662;18.324;2024-01-07T13:56:17;8.25;;;3.45;;
73951;SDS011;62304;47.662;18.324;2024-01-07T13:59:20;9.93;;;4.40;;
73951;SDS011;62304;47.662;18.324;2024-01-07T14:02:26;6.10;;;3.43;;
73951;SDS011;62304;47.662;18.324;2024-01-07T14:05:29;10.30;;;5.03;;
73951;SDS011;62304;47.662;18.324;2024-01-07T14:08:32;12.25;;;6.30;;
73951;SDS011;62304;47.662;18.324;2024-01-07T14:11:36;9.45;;;3.35;;
73951;SDS011;62304;47.662;18.324;2024-01-07T14:14:39;11.20;;;5.60;;
73951;SDS011;62304;47.662;18.324;2024-01-07T14:17:44;14.25;;;5.55;;
73951;SDS011;62304;47.662;18.324;2024-01-07T14:20:48;8.82;;;4.07;;
73951;SDS011;62304;47.662;18.324;2024-01-07T14:23:51;11.38;;;4.32;;
73951;SDS011;62304;47.662;18.324;2024-01-07T14:26:54;10.77;;;5.13;;
73951;SDS011;62304;47.662;18.324;2024-01-07T14:30:01;14.15;;;5.75;;
73951;SDS011;62304;47.662;18.324;2024-01-07T14:33:06;9.05;;;3.35;;
73951;SDS011;62304;47.662;18.324;2024-01-07T14:36:10;5.85;;;2.45;;
73951;SDS011;62304;47.662;18.324;2024-01-07T14:39:19;11.17;;;5.00;;
73951;SDS011;62304;47.662;18.324;2024-01-07T14:42:23;9.48;;;4.22;;
73951;SDS011;62304;47.662;18.324;2024-01-07T14:45:26;12.02;;;6.07;;
73951;SDS011;62304;47.662;18.324;2024-01-07T14:48:30;13.02;;;6.07;;
73951;SDS011;62304;47.662;18.324;2024-01-07T14:51:33;12.40;;;5.80;;
73951;SDS011;62304;47.662;18.324;2024-01-07T14:54:37;10.20;;;4.65;;
73951;SDS011;62304;47.662;18.324;2024-01-07T14:57:40;7.05;;;3.50;;
73951;SDS011;62304;47.662;18.324;2024-01-07T15:00:44;6.03;;;3.20;;
73951;SDS011;62304;47.662;18.324;2024-01-07T15:03:47;12.40;;;4.63;;
73951;SDS011;62304;47.662;18.324;2024-01-07T15:06:52;10.00;;;5.05;;
73951;SDS011;62304;47.662;18.324;2024-01-07T15:09:55;11.07;;;6.18;;
73951;SDS011;62304;47.662;18.324;2024-01-07T15:12:59;12.48;;;5.65;;
73951;SDS011;62304;47.662;18.324;2024-01-07T15:16:11;12.40;;;7.40;;
73951;SDS011;62304;47.662;18.324;2024-01-07T15:19:15;11.40;;;4.82;;
73951;SDS011;62304;47.662;18.324;2024-01-07T15:22:18;8.80;;;4.07;;
73951;SDS011;62304;47.662;18.324;2024-01-07T15:25:22;12.23;;;6.03;;
73951;SDS011;62304;47.662;18.324;2024-01-07T15:28:25;11.60;;;5.15;;
73951;SDS011;62304;47.662;18.324;2024-01-07T15:31:31;9.82;;;3.97;;
73951;SDS011;62304;47.662;18.324;2024-01-07T15:34:34;6.25;;;2.20;;
73951;SDS011;62304;47.662;18.324;2024-01-07T15:37:39;10.30;;;4.68;;
73951;SDS011;62304;47.662;18.324;2024-01-07T15:40:42;14.75;;;5.53;;
73951;SDS011;62304;47.662;18.324;2024-01-07T15:43:47;10.52;;;4.78;;
73951;SDS011;62304;47.662;18.324;2024-01-07T15:46:50;12.85;;;6.95;;
73951;SDS011;62304;47.662;18.324;2024-01-07T15:49:53;9.70;;;4.50;;
73951;SDS011;62304;47.662;18.324;2024-01-07T15:52:56;8.82;;;3.85;;
73951;SDS011;62304;47.662;18.324;2024-01-07T15:56:02;10.50;;;4.37;;
73951;SDS011;62304;47.662;18.324;2024-01-07T15:59:05;9.00;;;3.53;;
73951;SDS011;62304;47.662;18.324;2024-01-07T16:02:12;8.20;;;4.33;;
73951;SDS011;62304;47.662;18.324;2024-01-07T16:05:17;11.75;;;5.22;;
73951;SDS011;62304;47.662;18.324;2024-01-07T16:08:21;11.52;;;5.68;;
73951;SDS011;62304;47.662;18.324;2024-01-07T16:11:25;10.30;;;4.43;;
73951;SDS011;62304;47.662;18.324;2024-01-07T16:14:28;14.03;;;5.70;;
73951;SDS011;62304;47.662;18.324;2024-01-07T16:17:35;10.05;;;4.05;;
73951;SDS011;62304;47.662;18.324;2024-01-07T16:20:38;14.68;;;6.30;;
73951;SDS011;62304;47.662;18.324;2024-01-07T16:23:43;10.27;;;4.75;;
73951;SDS011;62304;47.662;18.324;2024-01-07T16:26:46;13.97;;;5.47;;
73951;SDS011;62304;47.662;18.324;2024-01-07T16:29:50;11.48;;;6.18;;
73951;SDS011;62304;47.662;18.324;2024-01-07T16:32:54;12.35;;;5.80;;
73951;SDS011;62304;47.662;18.324;2024-01-07T16:35:57;14.65;;;5.95;;
73951;SDS011;62304;47.662;18.324;2024-01-07T16:39:01;13.27;;;6.40;;
73951;SDS011;62304;47.662;18.324;2024-01-07T16:42:06;10.00;;;4.97;;
73951;SDS011;62304;47.662;18.324;2024-01-07T16:45:09;8.80;;;3.65;;
73951;SDS011;62304;47.662;18.324;2024-01-07T16:48:12;12.93;;;6.00;;
73951;SDS011;62304;47.662;18.324;2024-01-07T16:51:35;12.50;;;5.32;;
73951;SDS011;62304;47.662;18.324;2024-01-07T16:54:39;8.65;;;3.97;;
73951;SDS011;62304;47.662;18.324;2024-01-07T16:57:43;13.27;;;6.30;;
73951;SDS011;62304;47.662;18.324;2024-01-07T17:00:47;16.75;;;6.85;;
73951;SDS011;62304;47.662;18.324;2024-01-07T17:03:50;14.77;;;6.93;;
73951;SDS011;62304;47.662;18.324;2024-01-07T17:06:59;11.10;;;5.28;;
73951;SDS011;62304;47.662;18.324;2024-01-07T17:10:03;11.52;;;5.78;;
73951;SDS011;62304;47.662;18.324;2024-01-07T17:13:08;14.40;;;6.68;;
73951;SDS011;62304;47.662;18.324;2024-01-07T17:16:11;8.30;;;3.73;;
73951;SDS011;62304;47.662;18.324;2024-01-07T17:19:14;14.00;;;6.75;;
73951;SDS011;62304;47.662;18.324;2024-01-07T17:22:17;16.70;;;6.53;;
73951;SDS011;62304;47.662;18.324;2024-01-07T17:25:21;11.77;;;6.35;;
73951;SDS011;62304;47.662;18.324;2024-01-07T17:28:24;14.90;;;7.57;;
73951;SDS011;62304;47.662;18.324;2024-01-07T17:31:27;14.05;;;6.00;;
73951;SDS011;62304;47.662;18.324;2024-01-07T17:34:31;16.10;;;7.60;;
73951;SDS011;62304;47.662;18.324;2024-01-07T17:37:34;10.82;;;4.85;;
73951;SDS011;62304;47.662;18.324;2024-01-07T17:40:39;13.35;;;6.10;;
73951;SDS011;62304;47.662;18.324;2024-01-07T17:43:44;6.70;;;3.50;;
73951;SDS011;62304;47.662;18.324;2024-01-07T17:46:48;14.10;;;6.65;;
73951;SDS011;62304;47.662;18.324;2024-01-07T17:49:52;15.83;;;6.70;;
73951;SDS011;62304;47.662;18.324;2024-01-07T17:52:55;11.05;;;4.90;;
73951;SDS011;62304;47.662;18.324;2024-01-07T17:55:58;8.43;;;3.55;;
73951;SDS011;62304;47.662;18.324;2024-01-07T17:59:02;7.87;;;3.53;;
73951;SDS011;62304;47.662;18.324;2024-01-07T18:02:06;14.00;;;6.50;;
73951;SDS011;62304;47.662;18.324;2024-01-07T18:05:10;11.35;;;5.65;;
73951;SDS011;62304;47.662;18.324;2024-01-07T18:08:14;14.15;;;8.02;;
73951;SDS011;62304;47.662;18.324;2024-01-07T18:11:31;14.80;;;7.10;;
73951;SDS011;62304;47.662;18.324;2024-01-07T18:14:36;10.17;;;5.10;;